sensor_id;sensor_type;location;lat;lon;timestamp;P1;durP1;ratioP1;P2;durP2;ratioP2
9080;SDS011;13509;50.760;6.080;2023-02-28T00:01:06;6.63;;;3.50;;
9080;SDS011;13509;50.760;6.080;2023-02-28T00:03:34;9.10;;;3.33;;
9080;SDS011;13509;50.760;6.080;2023-02-28T00:06:03;5.63;;;3.37;;
9080;SDS011;13509;50.760;6.080;2023-02-28T00:08:31;7.57;;;3.70;;
9080;SDS011;13509;50.760;6.080;2023-02-28T00:11:02;6.07;;;3.73;;
9080;SDS011;13509;50.760;6.080;2023-02-28T00:13:30;7.63;;;3.80;;
9080;SDS011;13509;50.760;6.080;2023-02-28T00:15:59;4.30;;;3.30;;
9080;SDS011;13509;50.760;6.080;2023-02-28T00:18:27;7.77;;;3.40;;
9080;SDS011;13509;50.760;6.080;2023-02-28T00:20:56;4.90;;;3.30;;
9080;SDS011;13509;50.760;6.080;2023-02-28T00:23:25;3.97;;;3.07;;
9080;SDS011;13509;50.760;6.080;2023-02-28T00:25:53;5.87;;;3.20;;
9080;SDS011;13509;50.760;6.080;2023-02-28T00:28:23;7.10;;;3.67;;
9080;SDS011;13509;50.760;6.080;2023-02-28T00:30:51;7.50;;;3.57;;
9080;SDS011;13509;50.760;6.080;2023-02-28T00:33:19;7.70;;;3.30;;
9080;SDS011;13509;50.760;6.080;2023-02-28T00:35:48;5.40;;;3.40;;
9080;SDS011;13509;50.760;6.080;2023-02-28T00:38:17;6.13;;;3.00;;
9080;SDS011;13509;50.760;6.080;2023-02-28T00:40:45;6.50;;;3.40;;
9080;SDS011;13509;50.760;6.080;2023-02-28T00:43:13;4.87;;;3.07;;
9080;SDS011;13509;50.760;6.080;2023-02-28T00:45:43;5.77;;;3.07;;
9080;SDS011;13509;50.760;6.080;2023-02-28T00:48:11;10.63;;;3.50;;
9080;SDS011;13509;50.760;6.080;2023-02-28T00:50:39;6.03;;;3.23;;
9080;SDS011;13509;50.760;6.080;2023-02-28T00:53:08;6.87;;;3.57;;
9080;SDS011;13509;50.760;6.080;2023-02-28T00:55:36;6.73;;;3.97;;
9080;SDS011;13509;50.760;6.080;2023-02-28T00:58:04;5.80;;;3.60;;
9080;SDS011;13509;50.760;6.080;2023-02-28T01:00:32;5.87;;;3.70;;
9080;SDS011;13509;50.760;6.080;2023-02-28T01:03:02;7.57;;;3.70;;
9080;SDS011;13509;50.760;6.080;2023-02-28T01:05:30;5.20;;;3.80;;
9080;SDS011;13509;50.760;6.080;2023-02-28T01:07:58;4.90;;;3.63;;
9080;SDS011;13509;50.760;6.080;2023-02-28T01:10:26;5.47;;;3.57;;
9080;SDS011;13509;50.760;6.080;2023-02-28T01:12:57;5.43;;;3.70;;
9080;SDS011;13509;50.760;6.080;2023-02-28T01:15:25;7.13;;;4.00;;
9080;SDS011;13509;50.760;6.080;2023-02-28T01:17:53;7.03;;;3.97;;
9080;SDS011;13509;50.760;6.080;2023-02-28T01:20:23;4.77;;;3.97;;
9080;SDS011;13509;50.760;6.080;2023-02-28T01:22:51;6.37;;;3.90;;
9080;SDS011;13509;50.760;6.080;2023-02-28T01:25:19;6.30;;;3.33;;
9080;SDS011;13509;50.760;6.080;2023-02-28T01:27:47;6.00;;;3.50;;
9080;SDS011;13509;50.760;6.080;2023-02-28T01:30:16;5.80;;;3.23;;
9080;SDS011;13509;50.760;6.080;2023-02-28T01:32:44;6.93;;;3.73;;
9080;SDS011;13509;50.760;6.080;2023-02-28T01:35:12;4.73;;;3.13;;
9080;SDS011;13509;50.760;6.080;2023-02-28T01:37:42;4.07;;;3.37;;
9080;SDS011;13509;50.760;6.080;2023-02-28T01:40:10;8.00;;;3.30;;
9080;SDS011;13509;50.760;6.080;2023-02-28T01:42:39;5.63;;;3.50;;
9080;SDS011;13509;50.760;6.080;2023-02-28T01:45:16;7.53;;;3.07;;
9080;SDS011;13509;50.760;6.080;2023-02-28T01:47:46;4.57;;;3.00;;
9080;SDS011;13509;50.760;6.080;2023-02-28T01:50:16;5.67;;;3.47;;
9080;SDS011;13509;50.760;6.080;2023-02-28T01:52:47;6.23;;;3.17;;
9080;SDS011;13509;50.760;6.080;2023-02-28T01:55:16;7.73;;;2.83;;
9080;SDS011;13509;50.760;6.080;2023-02-28T01:57:45;9.80;;;3.40;;
9080;SDS011;13509;50.760;6.080;2023-02-28T02:00:15;4.87;;;3.30;;
9080;SDS011;13509;50.760;6.080;2023-02-28T02:02:44;5.90;;;2.67;;
9080;SDS011;13509;50.760;6.080;2023-02-28T02:05:15;5.27;;;2.97;;
9080;SDS011;13509;50.760;6.080;2023-02-28T02:07:44;5.20;;;3.00;;
9080;SDS011;13509;50.760;6.080;2023-02-28T02:10:15;3.80;;;2.83;;
9080;SDS011;13509;50.760;6.080;2023-02-28T02:12:49;4.73;;;3.00;;
9080;SDS011;13509;50.760;6.080;2023-02-28T02:15:21;5.50;;;3.50;;
9080;SDS011;13509;50.760;6.080;2023-02-28T02:17:52;5.93;;;3.20;;
9080;SDS011;13509;50.760;6.080;2023-02-28T02:20:27;4.77;;;3.37;;
9080;SDS011;13509;50.760;6.080;2023-02-28T02:23:03;4.70;;;2.97;;
9080;SDS011;13509;50.760;6.080;2023-02-28T02:25:37;5.67;;;3.10;;
9080;SDS011;13509;50.760;6.080;2023-02-28T02:30:55;6.40;;;2.93;;
9080;SDS011;13509;50.760;6.080;2023-02-28T02:33:41;7.10;;;3.13;;
9080;SDS011;13509;50.760;6.080;2023-02-28T02:36:13;4.57;;;3.10;;
9080;SDS011;13509;50.760;6.080;2023-02-28T02:38:46;7.03;;;3.00;;
9080;SDS011;13509;50.760;6.080;2023-02-28T02:41:18;5.87;;;3.00;;
9080;SDS011;13509;50.760;6.080;2023-02-28T02:43:47;5.27;;;3.13;;
9080;SDS011;13509;50.760;6.080;2023-02-28T02:46:19;4.70;;;3.47;;
9080;SDS011;13509;50.760;6.080;2023-02-28T02:48:48;7.33;;;3.67;;
9080;SDS011;13509;50.760;6.080;2023-02-28T02:51:18;6.47;;;3.40;;
9080;SDS011;13509;50.760;6.080;2023-02-28T02:53:49;5.30;;;2.90;;
9080;SDS011;13509;50.760;6.080;2023-02-28T02:56:18;6.70;;;3.40;;
9080;SDS011;13509;50.760;6.080;2023-02-28T02:58:47;6.47;;;3.20;;
9080;SDS011;13509;50.760;6.080;2023-02-28T03:01:18;5.40;;;2.77;;
9080;SDS011;13509;50.760;6.080;2023-02-28T03:03:55;8.70;;;3.00;;
9080;SDS011;13509;50.760;6.080;2023-02-28T03:06:25;7.10;;;3.40;;
9080;SDS011;13509;50.760;6.080;2023-02-28T03:08:54;6.50;;;3.20;;
9080;SDS011;13509;50.760;6.080;2023-02-28T03:11:22;5.13;;;3.17;;
9080;SDS011;13509;50.760;6.080;2023-02-28T03:16:41;4.80;;;3.20;;
9080;SDS011;13509;50.760;6.080;2023-02-28T03:22:04;6.47;;;3.13;;
9080;SDS011;13509;50.760;6.080;2023-02-28T03:24:37;4.23;;;2.80;;
9080;SDS011;13509;50.760;6.080;2023-02-28T03:27:10;7.37;;;3.57;;
9080;SDS011;13509;50.760;6.080;2023-02-28T03:29:40;3.77;;;2.90;;
9080;SDS011;13509;50.760;6.080;2023-02-28T03:32:11;6.00;;;3.27;;
9080;SDS011;13509;50.760;6.080;2023-02-28T03:34:46;6.37;;;3.00;;
9080;SDS011;13509;50.760;6.080;2023-02-28T03:37:18;5.03;;;3.10;;
9080;SDS011;13509;50.760;6.080;2023-02-28T03:39:49;6.10;;;3.30;;
9080;SDS011;13509;50.760;6.080;2023-02-28T03:42:20;8.17;;;3.50;;
9080;SDS011;13509;50.760;6.080;2023-02-28T03:44:51;6.13;;;3.70;;
9080;SDS011;13509;50.760;6.080;2023-02-28T03:47:21;5.93;;;3.33;;
9080;SDS011;13509;50.760;6.080;2023-02-28T03:49:52;7.30;;;3.33;;
9080;SDS011;13509;50.760;6.080;2023-02-28T03:52:24;8.00;;;3.47;;
9080;SDS011;13509;50.760;6.080;2023-02-28T03:54:54;6.00;;;3.07;;
9080;SDS011;13509;50.760;6.080;2023-02-28T03:57:26;4.43;;;3.00;;
9080;SDS011;13509;50.760;6.080;2023-02-28T03:59:56;11.73;;;3.57;;
9080;SDS011;13509;50.760;6.080;2023-02-28T04:02:24;7.03;;;3.17;;
9080;SDS011;13509;50.760;6.080;2023-02-28T04:04:53;4.93;;;3.33;;
9080;SDS011;13509;50.760;6.080;2023-02-28T04:07:22;5.00;;;3.87;;
9080;SDS011;13509;50.760;6.080;2023-02-28T04:09:51;5.00;;;3.77;;
9080;SDS011;13509;50.760;6.080;2023-02-28T04:12:19;7.97;;;3.53;;
9080;SDS011;13509;50.760;6.080;2023-02-28T04:14:49;6.40;;;3.23;;
9080;SDS011;13509;50.760;6.080;2023-02-28T04:17:17;5.27;;;3.53;;
9080;SDS011;13509;50.760;6.080;2023-02-28T04:19:45;4.60;;;2.90;;
9080;SDS011;13509;50.760;6.080;2023-02-28T04:22:13;6.33;;;3.57;;
9080;SDS011;13509;50.760;6.080;2023-02-28T04:24:44;5.70;;;3.47;;
9080;SDS011;13509;50.760;6.080;2023-02-28T04:27:12;4.90;;;3.57;;
9080;SDS011;13509;50.760;6.080;2023-02-28T04:29:41;7.40;;;3.97;;
9080;SDS011;13509;50.760;6.080;2023-02-28T04:32:10;8.57;;;3.50;;
9080;SDS011;13509;50.760;6.080;2023-02-28T04:34:38;6.40;;;3.80;;
9080;SDS011;13509;50.760;6.080;2023-02-28T04:37:07;6.53;;;4.13;;
9080;SDS011;13509;50.760;6.080;2023-02-28T04:39:39;4.53;;;3.00;;
9080;SDS011;13509;50.760;6.080;2023-02-28T04:42:09;6.33;;;3.73;;
9080;SDS011;13509;50.760;6.080;2023-02-28T04:44:37;5.00;;;3.13;;
9080;SDS011;13509;50.760;6.080;2023-02-28T04:47:06;10.30;;;3.87;;
9080;SDS011;13509;50.760;6.080;2023-02-28T04:49:34;6.50;;;3.73;;
9080;SDS011;13509;50.760;6.080;2023-02-28T04:52:02;5.70;;;3.50;;
9080;SDS011;13509;50.760;6.080;2023-02-28T04:54:31;4.50;;;3.23;;
9080;SDS011;13509;50.760;6.080;2023-02-28T04:56:59;4.17;;;3.53;;
9080;SDS011;13509;50.760;6.080;2023-02-28T04:59:29;4.23;;;3.03;;
9080;SDS011;13509;50.760;6.080;2023-02-28T05:01:57;6.40;;;3.50;;
9080;SDS011;13509;50.760;6.080;2023-02-28T05:04:25;6.13;;;3.50;;
9080;SDS011;13509;50.760;6.080;2023-02-28T05:06:53;5.17;;;3.50;;
9080;SDS011;13509;50.760;6.080;2023-02-28T05:09:22;5.77;;;3.60;;
9080;SDS011;13509;50.760;6.080;2023-02-28T05:11:50;4.13;;;3.37;;
9080;SDS011;13509;50.760;6.080;2023-02-28T05:14:18;5.70;;;3.80;;
9080;SDS011;13509;50.760;6.080;2023-02-28T05:16:48;4.77;;;3.20;;
9080;SDS011;13509;50.760;6.080;2023-02-28T05:19:16;5.20;;;3.87;;
9080;SDS011;13509;50.760;6.080;2023-02-28T05:21:49;6.27;;;3.53;;
9080;SDS011;13509;50.760;6.080;2023-02-28T05:24:18;5.40;;;4.17;;
9080;SDS011;13509;50.760;6.080;2023-02-28T05:26:49;6.97;;;3.90;;
9080;SDS011;13509;50.760;6.080;2023-02-28T05:29:18;6.07;;;3.60;;
9080;SDS011;13509;50.760;6.080;2023-02-28T05:31:47;4.27;;;3.17;;
9080;SDS011;13509;50.760;6.080;2023-02-28T05:34:16;5.40;;;3.17;;
9080;SDS011;13509;50.760;6.080;2023-02-28T05:36:44;5.10;;;3.40;;
9080;SDS011;13509;50.760;6.080;2023-02-28T05:39:12;4.63;;;3.37;;
9080;SDS011;13509;50.760;6.080;2023-02-28T05:41:41;4.77;;;3.73;;
9080;SDS011;13509;50.760;6.080;2023-02-28T05:44:09;6.83;;;3.50;;
9080;SDS011;13509;50.760;6.080;2023-02-28T05:46:38;6.70;;;3.80;;
9080;SDS011;13509;50.760;6.080;2023-02-28T05:49:08;5.70;;;3.70;;
9080;SDS011;13509;50.760;6.080;2023-02-28T05:51:36;8.17;;;3.93;;
9080;SDS011;13509;50.760;6.080;2023-02-28T05:54:06;5.23;;;3.73;;
9080;SDS011;13509;50.760;6.080;2023-02-28T05:56:34;5.30;;;3.50;;
9080;SDS011;13509;50.760;6.080;2023-02-28T05:59:05;7.50;;;4.33;;
9080;SDS011;13509;50.760;6.080;2023-02-28T06:01:34;8.60;;;3.83;;
9080;SDS011;13509;50.760;6.080;2023-02-28T06:04:03;6.60;;;4.20;;
9080;SDS011;13509;50.760;6.080;2023-02-28T06:06:33;4.87;;;3.80;;
9080;SDS011;13509;50.760;6.080;2023-02-28T06:09:02;6.40;;;3.90;;
9080;SDS011;13509;50.760;6.080;2023-02-28T06:11:31;5.83;;;3.67;;
9080;SDS011;13509;50.760;6.080;2023-02-28T06:13:59;5.50;;;3.80;;
9080;SDS011;13509;50.760;6.080;2023-02-28T06:16:28;4.60;;;3.30;;
9080;SDS011;13509;50.760;6.080;2023-02-28T06:18:57;5.53;;;4.00;;
9080;SDS011;13509;50.760;6.080;2023-02-28T06:21:25;8.63;;;4.20;;
9080;SDS011;13509;50.760;6.080;2023-02-28T06:23:56;8.97;;;5.17;;
9080;SDS011;13509;50.760;6.080;2023-02-28T06:26:25;5.80;;;4.20;;
9080;SDS011;13509;50.760;6.080;2023-02-28T06:28:53;13.13;;;4.20;;
9080;SDS011;13509;50.760;6.080;2023-02-28T06:31:22;8.53;;;3.80;;
9080;SDS011;13509;50.760;6.080;2023-02-28T06:33:52;6.30;;;4.00;;
9080;SDS011;13509;50.760;6.080;2023-02-28T06:36:20;6.10;;;4.07;;
9080;SDS011;13509;50.760;6.080;2023-02-28T06:38:48;8.03;;;4.33;;
9080;SDS011;13509;50.760;6.080;2023-02-28T06:41:22;10.43;;;4.57;;
9080;SDS011;13509;50.760;6.080;2023-02-28T06:43:51;5.47;;;4.30;;
9080;SDS011;13509;50.760;6.080;2023-02-28T06:46:19;9.73;;;4.07;;
9080;SDS011;13509;50.760;6.080;2023-02-28T06:48:48;5.70;;;4.07;;
9080;SDS011;13509;50.760;6.080;2023-02-28T06:51:17;5.70;;;3.90;;
9080;SDS011;13509;50.760;6.080;2023-02-28T06:53:46;7.60;;;5.00;;
9080;SDS011;13509;50.760;6.080;2023-02-28T06:56:14;10.37;;;4.70;;
9080;SDS011;13509;50.760;6.080;2023-02-28T06:58:46;10.13;;;5.00;;
9080;SDS011;13509;50.760;6.080;2023-02-28T07:01:15;8.00;;;4.90;;
9080;SDS011;13509;50.760;6.080;2023-02-28T07:03:45;6.20;;;4.47;;
9080;SDS011;13509;50.760;6.080;2023-02-28T07:06:13;6.90;;;4.70;;
9080;SDS011;13509;50.760;6.080;2023-02-28T07:08:44;6.50;;;4.30;;
9080;SDS011;13509;50.760;6.080;2023-02-28T07:11:12;5.67;;;4.20;;
9080;SDS011;13509;50.760;6.080;2023-02-28T07:13:40;8.80;;;5.17;;
9080;SDS011;13509;50.760;6.080;2023-02-28T07:16:10;8.20;;;4.57;;
9080;SDS011;13509;50.760;6.080;2023-02-28T07:18:39;6.73;;;3.60;;
9080;SDS011;13509;50.760;6.080;2023-02-28T07:21:08;5.97;;;3.90;;
9080;SDS011;13509;50.760;6.080;2023-02-28T07:23:36;7.10;;;4.03;;
9080;SDS011;13509;50.760;6.080;2023-02-28T07:26:05;9.60;;;3.57;;
9080;SDS011;13509;50.760;6.080;2023-02-28T07:28:34;9.90;;;4.63;;
9080;SDS011;13509;50.760;6.080;2023-02-28T07:31:05;9.13;;;3.90;;
9080;SDS011;13509;50.760;6.080;2023-02-28T07:33:35;7.40;;;3.77;;
9080;SDS011;13509;50.760;6.080;2023-02-28T07:36:04;5.80;;;3.50;;
9080;SDS011;13509;50.760;6.080;2023-02-28T07:41:01;8.80;;;3.83;;
9080;SDS011;13509;50.760;6.080;2023-02-28T07:43:31;11.60;;;4.20;;
9080;SDS011;13509;50.760;6.080;2023-02-28T07:46:01;7.83;;;3.50;;
9080;SDS011;13509;50.760;6.080;2023-02-28T07:48:29;6.93;;;3.67;;
9080;SDS011;13509;50.760;6.080;2023-02-28T07:50:59;8.47;;;3.50;;
9080;SDS011;13509;50.760;6.080;2023-02-28T07:53:27;6.43;;;3.40;;
9080;SDS011;13509;50.760;6.080;2023-02-28T07:55:55;7.00;;;2.97;;
9080;SDS011;13509;50.760;6.080;2023-02-28T07:58:24;6.53;;;3.27;;
9080;SDS011;13509;50.760;6.080;2023-02-28T08:00:53;4.87;;;2.77;;
9080;SDS011;13509;50.760;6.080;2023-02-28T08:03:22;8.33;;;3.30;;
9080;SDS011;13509;50.760;6.080;2023-02-28T08:05:50;5.27;;;3.00;;
9080;SDS011;13509;50.760;6.080;2023-02-28T08:08:21;4.43;;;3.07;;
9080;SDS011;13509;50.760;6.080;2023-02-28T08:10:49;4.90;;;2.83;;
9080;SDS011;13509;50.760;6.080;2023-02-28T08:13:17;4.57;;;2.70;;
9080;SDS011;13509;50.760;6.080;2023-02-28T08:15:46;8.53;;;3.37;;
9080;SDS011;13509;50.760;6.080;2023-02-28T08:18:14;5.13;;;3.10;;
9080;SDS011;13509;50.760;6.080;2023-02-28T08:20:42;7.23;;;2.97;;
9080;SDS011;13509;50.760;6.080;2023-02-28T08:23:10;7.97;;;2.93;;
9080;SDS011;13509;50.760;6.080;2023-02-28T08:25:40;4.20;;;2.83;;
9080;SDS011;13509;50.760;6.080;2023-02-28T08:28:08;3.53;;;2.60;;
9080;SDS011;13509;50.760;6.080;2023-02-28T08:30:36;6.47;;;3.03;;
9080;SDS011;13509;50.760;6.080;2023-02-28T08:33:07;4.30;;;2.47;;
9080;SDS011;13509;50.760;6.080;2023-02-28T08:35:35;5.10;;;2.87;;
9080;SDS011;13509;50.760;6.080;2023-02-28T08:38:04;4.50;;;2.60;;
9080;SDS011;13509;50.760;6.080;2023-02-28T08:40:32;5.17;;;2.90;;
9080;SDS011;13509;50.760;6.080;2023-02-28T08:43:02;5.00;;;2.83;;
9080;SDS011;13509;50.760;6.080;2023-02-28T08:45:30;2.80;;;2.30;;
9080;SDS011;13509;50.760;6.080;2023-02-28T08:47:58;3.77;;;2.17;;
9080;SDS011;13509;50.760;6.080;2023-02-28T08:50:26;3.17;;;2.43;;
9080;SDS011;13509;50.760;6.080;2023-02-28T08:52:54;15.10;;;2.60;;
9080;SDS011;13509;50.760;6.080;2023-02-28T08:55:23;5.87;;;2.30;;
9080;SDS011;13509;50.760;6.080;2023-02-28T08:57:51;4.90;;;2.87;;
9080;SDS011;13509;50.760;6.080;2023-02-28T09:00:22;3.70;;;2.47;;
9080;SDS011;13509;50.760;6.080;2023-02-28T09:02:51;5.63;;;2.97;;
9080;SDS011;13509;50.760;6.080;2023-02-28T09:05:20;5.20;;;2.47;;
9080;SDS011;13509;50.760;6.080;2023-02-28T09:07:49;3.10;;;2.50;;
9080;SDS011;13509;50.760;6.080;2023-02-28T09:10:17;2.40;;;2.20;;
9080;SDS011;13509;50.760;6.080;2023-02-28T09:12:45;3.70;;;2.90;;
9080;SDS011;13509;50.760;6.080;2023-02-28T09:15:13;5.13;;;2.40;;
9080;SDS011;13509;50.760;6.080;2023-02-28T09:17:43;3.60;;;2.30;;
9080;SDS011;13509;50.760;6.080;2023-02-28T09:20:13;5.00;;;2.63;;
9080;SDS011;13509;50.760;6.080;2023-02-28T09:22:41;4.13;;;2.87;;
9080;SDS011;13509;50.760;6.080;2023-02-28T09:25:10;5.73;;;3.10;;
9080;SDS011;13509;50.760;6.080;2023-02-28T09:27:38;3.23;;;2.70;;
9080;SDS011;13509;50.760;6.080;2023-02-28T09:30:08;4.30;;;2.27;;
9080;SDS011;13509;50.760;6.080;2023-02-28T09:32:36;5.60;;;2.20;;
9080;SDS011;13509;50.760;6.080;2023-02-28T09:35:06;3.33;;;2.30;;
9080;SDS011;13509;50.760;6.080;2023-02-28T09:37:39;7.23;;;2.03;;
9080;SDS011;13509;50.760;6.080;2023-02-28T09:40:08;4.00;;;2.37;;
9080;SDS011;13509;50.760;6.080;2023-02-28T09:42:37;4.90;;;2.27;;
9080;SDS011;13509;50.760;6.080;2023-02-28T09:45:06;3.87;;;2.27;;
9080;SDS011;13509;50.760;6.080;2023-02-28T09:47:44;5.63;;;1.97;;
9080;SDS011;13509;50.760;6.080;2023-02-28T09:50:22;3.17;;;1.87;;
9080;SDS011;13509;50.760;6.080;2023-02-28T09:52:55;2.63;;;1.70;;
9080;SDS011;13509;50.760;6.080;2023-02-28T09:55:25;2.70;;;2.10;;
9080;SDS011;13509;50.760;6.080;2023-02-28T09:58:03;1.97;;;1.80;;
9080;SDS011;13509;50.760;6.080;2023-02-28T10:00:32;3.47;;;1.90;;
9080;SDS011;13509;50.760;6.080;2023-02-28T10:03:04;2.03;;;1.67;;
9080;SDS011;13509;50.760;6.080;2023-02-28T10:05:35;2.73;;;1.90;;
9080;SDS011;13509;50.760;6.080;2023-02-28T10:08:10;2.47;;;2.07;;
9080;SDS011;13509;50.760;6.080;2023-02-28T10:10:40;3.20;;;1.87;;
9080;SDS011;13509;50.760;6.080;2023-02-28T10:13:13;4.93;;;2.03;;
9080;SDS011;13509;50.760;6.080;2023-02-28T10:15:42;3.67;;;1.73;;
9080;SDS011;13509;50.760;6.080;2023-02-28T10:18:12;2.63;;;1.70;;
9080;SDS011;13509;50.760;6.080;2023-02-28T10:20:44;2.40;;;1.93;;
9080;SDS011;13509;50.760;6.080;2023-02-28T10:23:14;3.23;;;2.00;;
9080;SDS011;13509;50.760;6.080;2023-02-28T10:25:46;3.57;;;1.90;;
9080;SDS011;13509;50.760;6.080;2023-02-28T10:28:16;1.73;;;1.43;;
9080;SDS011;13509;50.760;6.080;2023-02-28T10:30:45;2.43;;;1.60;;
9080;SDS011;13509;50.760;6.080;2023-02-28T10:33:22;2.27;;;1.77;;
9080;SDS011;13509;50.760;6.080;2023-02-28T10:35:52;4.27;;;1.90;;
9080;SDS011;13509;50.760;6.080;2023-02-28T10:38:21;1.90;;;1.77;;
9080;SDS011;13509;50.760;6.080;2023-02-28T10:40:50;2.50;;;1.80;;
9080;SDS011;13509;50.760;6.080;2023-02-28T10:43:19;3.57;;;1.70;;
9080;SDS011;13509;50.760;6.080;2023-02-28T10:45:58;2.13;;;1.47;;
9080;SDS011;13509;50.760;6.080;2023-02-28T10:48:29;2.00;;;1.80;;
9080;SDS011;13509;50.760;6.080;2023-02-28T10:51:00;3.17;;;1.90;;
9080;SDS011;13509;50.760;6.080;2023-02-28T10:53:31;1.60;;;1.40;;
9080;SDS011;13509;50.760;6.080;2023-02-28T10:56:15;2.30;;;1.50;;
9080;SDS011;13509;50.760;6.080;2023-02-28T10:58:48;2.87;;;2.20;;
9080;SDS011;13509;50.760;6.080;2023-02-28T11:01:17;3.60;;;2.20;;
9080;SDS011;13509;50.760;6.080;2023-02-28T11:03:47;1.97;;;1.70;;
9080;SDS011;13509;50.760;6.080;2023-02-28T11:06:18;3.10;;;1.70;;
9080;SDS011;13509;50.760;6.080;2023-02-28T11:08:48;2.20;;;1.70;;
9080;SDS011;13509;50.760;6.080;2023-02-28T11:11:17;2.80;;;2.10;;
9080;SDS011;13509;50.760;6.080;2023-02-28T11:13:46;2.40;;;1.93;;
9080;SDS011;13509;50.760;6.080;2023-02-28T11:16:16;3.13;;;2.10;;
9080;SDS011;13509;50.760;6.080;2023-02-28T11:18:46;3.13;;;1.80;;
9080;SDS011;13509;50.760;6.080;2023-02-28T11:21:18;3.33;;;1.63;;
9080;SDS011;13509;50.760;6.080;2023-02-28T11:23:47;2.57;;;2.03;;
9080;SDS011;13509;50.760;6.080;2023-02-28T11:26:36;2.03;;;1.70;;
9080;SDS011;13509;50.760;6.080;2023-02-28T11:29:09;2.20;;;2.00;;
9080;SDS011;13509;50.760;6.080;2023-02-28T11:31:38;2.47;;;2.00;;
9080;SDS011;13509;50.760;6.080;2023-02-28T11:36:56;2.13;;;1.80;;
9080;SDS011;13509;50.760;6.080;2023-02-28T11:39:25;2.83;;;2.10;;
9080;SDS011;13509;50.760;6.080;2023-02-28T11:42:00;2.37;;;2.00;;
9080;SDS011;13509;50.760;6.080;2023-02-28T11:44:34;2.70;;;1.90;;
9080;SDS011;13509;50.760;6.080;2023-02-28T11:47:06;2.23;;;1.90;;
9080;SDS011;13509;50.760;6.080;2023-02-28T11:49:37;2.23;;;1.80;;
9080;SDS011;13509;50.760;6.080;2023-02-28T11:52:14;2.93;;;2.27;;
9080;SDS011;13509;50.760;6.080;2023-02-28T11:54:51;3.33;;;2.17;;
9080;SDS011;13509;50.760;6.080;2023-02-28T11:57:30;3.27;;;2.67;;
9080;SDS011;13509;50.760;6.080;2023-02-28T12:00:03;5.73;;;2.37;;
9080;SDS011;13509;50.760;6.080;2023-02-28T12:02:35;2.50;;;1.80;;
9080;SDS011;13509;50.760;6.080;2023-02-28T12:05:16;4.40;;;2.10;;
9080;SDS011;13509;50.760;6.080;2023-02-28T12:07:49;3.90;;;2.40;;
9080;SDS011;13509;50.760;6.080;2023-02-28T12:10:20;3.03;;;2.47;;
9080;SDS011;13509;50.760;6.080;2023-02-28T12:12:53;5.30;;;2.80;;
9080;SDS011;13509;50.760;6.080;2023-02-28T12:15:28;4.10;;;2.40;;
9080;SDS011;13509;50.760;6.080;2023-02-28T12:18:06;2.50;;;2.27;;
9080;SDS011;13509;50.760;6.080;2023-02-28T12:20:38;3.30;;;2.10;;
9080;SDS011;13509;50.760;6.080;2023-02-28T12:23:19;2.60;;;2.20;;
9080;SDS011;13509;50.760;6.080;2023-02-28T12:25:51;4.53;;;2.40;;
9080;SDS011;13509;50.760;6.080;2023-02-28T12:28:23;3.80;;;2.20;;
9080;SDS011;13509;50.760;6.080;2023-02-28T12:30:54;4.33;;;2.30;;
9080;SDS011;13509;50.760;6.080;2023-02-28T12:33:25;2.83;;;2.37;;
9080;SDS011;13509;50.760;6.080;2023-02-28T12:35:56;2.83;;;2.30;;
9080;SDS011;13509;50.760;6.080;2023-02-28T12:38:27;2.97;;;2.23;;
9080;SDS011;13509;50.760;6.080;2023-02-28T12:40:56;2.77;;;2.17;;
9080;SDS011;13509;50.760;6.080;2023-02-28T12:43:30;3.90;;;2.37;;
9080;SDS011;13509;50.760;6.080;2023-02-28T12:46:00;2.50;;;2.13;;
9080;SDS011;13509;50.760;6.080;2023-02-28T12:48:31;3.37;;;2.50;;
9080;SDS011;13509;50.760;6.080;2023-02-28T12:51:01;3.37;;;2.33;;
9080;SDS011;13509;50.760;6.080;2023-02-28T12:53:33;2.67;;;2.33;;
9080;SDS011;13509;50.760;6.080;2023-02-28T12:56:08;3.93;;;2.10;;
9080;SDS011;13509;50.760;6.080;2023-02-28T12:58:38;4.47;;;2.47;;
9080;SDS011;13509;50.760;6.080;2023-02-28T13:04:03;2.70;;;2.03;;
9080;SDS011;13509;50.760;6.080;2023-02-28T13:06:40;4.30;;;2.50;;
9080;SDS011;13509;50.760;6.080;2023-02-28T13:09:12;3.13;;;2.13;;
9080;SDS011;13509;50.760;6.080;2023-02-28T13:11:42;2.77;;;2.33;;
9080;SDS011;13509;50.760;6.080;2023-02-28T13:14:22;3.80;;;2.20;;
9080;SDS011;13509;50.760;6.080;2023-02-28T13:16:54;2.90;;;2.30;;
9080;SDS011;13509;50.760;6.080;2023-02-28T13:19:23;2.57;;;2.00;;
9080;SDS011;13509;50.760;6.080;2023-02-28T13:21:53;2.90;;;2.70;;
9080;SDS011;13509;50.760;6.080;2023-02-28T13:24:40;3.80;;;2.23;;
9080;SDS011;13509;50.760;6.080;2023-02-28T13:29:58;3.90;;;2.50;;
9080;SDS011;13509;50.760;6.080;2023-02-28T13:32:31;2.93;;;2.20;;
9080;SDS011;13509;50.760;6.080;2023-02-28T13:35:13;3.13;;;2.43;;
9080;SDS011;13509;50.760;6.080;2023-02-28T13:37:42;3.73;;;2.50;;
9080;SDS011;13509;50.760;6.080;2023-02-28T13:43:08;3.60;;;2.80;;
9080;SDS011;13509;50.760;6.080;2023-02-28T13:45:36;2.57;;;2.37;;
9080;SDS011;13509;50.760;6.080;2023-02-28T13:48:15;3.93;;;2.30;;
9080;SDS011;13509;50.760;6.080;2023-02-28T13:50:43;2.67;;;2.40;;
9080;SDS011;13509;50.760;6.080;2023-02-28T13:53:30;3.33;;;2.40;;
9080;SDS011;13509;50.760;6.080;2023-02-28T13:56:03;3.30;;;2.33;;
9080;SDS011;13509;50.760;6.080;2023-02-28T13:58:39;2.50;;;2.30;;
9080;SDS011;13509;50.760;6.080;2023-02-28T14:01:16;2.73;;;2.23;;
9080;SDS011;13509;50.760;6.080;2023-02-28T14:03:53;4.00;;;2.63;;
9080;SDS011;13509;50.760;6.080;2023-02-28T14:06:26;4.80;;;2.63;;
9080;SDS011;13509;50.760;6.080;2023-02-28T14:08:57;4.57;;;2.50;;
9080;SDS011;13509;50.760;6.080;2023-02-28T14:11:28;4.30;;;2.73;;
9080;SDS011;13509;50.760;6.080;2023-02-28T14:13:58;8.00;;;2.90;;
9080;SDS011;13509;50.760;6.080;2023-02-28T14:16:27;3.00;;;1.80;;
9080;SDS011;13509;50.760;6.080;2023-02-28T14:19:03;4.40;;;2.40;;
9080;SDS011;13509;50.760;6.080;2023-02-28T14:21:43;3.40;;;2.43;;
9080;SDS011;13509;50.760;6.080;2023-02-28T14:24:19;4.67;;;2.60;;
9080;SDS011;13509;50.760;6.080;2023-02-28T14:26:51;4.23;;;2.80;;
9080;SDS011;13509;50.760;6.080;2023-02-28T14:29:30;7.07;;;2.90;;
9080;SDS011;13509;50.760;6.080;2023-02-28T14:32:03;4.00;;;2.17;;
9080;SDS011;13509;50.760;6.080;2023-02-28T14:34:38;4.60;;;2.90;;
9080;SDS011;13509;50.760;6.080;2023-02-28T14:37:09;6.37;;;2.73;;
9080;SDS011;13509;50.760;6.080;2023-02-28T14:39:40;4.20;;;2.80;;
9080;SDS011;13509;50.760;6.080;2023-02-28T14:44:54;2.50;;;2.30;;
9080;SDS011;13509;50.760;6.080;2023-02-28T14:47:23;4.43;;;2.57;;
9080;SDS011;13509;50.760;6.080;2023-02-28T14:49:53;2.70;;;2.40;;
9080;SDS011;13509;50.760;6.080;2023-02-28T14:52:22;3.70;;;2.73;;
9080;SDS011;13509;50.760;6.080;2023-02-28T14:54:51;3.77;;;2.47;;
9080;SDS011;13509;50.760;6.080;2023-02-28T14:57:21;4.63;;;2.73;;
9080;SDS011;13509;50.760;6.080;2023-02-28T14:59:57;3.80;;;2.40;;
9080;SDS011;13509;50.760;6.080;2023-02-28T15:02:29;3.47;;;2.50;;
9080;SDS011;13509;50.760;6.080;2023-02-28T15:04:58;5.20;;;2.83;;
9080;SDS011;13509;50.760;6.080;2023-02-28T15:07:27;3.33;;;2.90;;
9080;SDS011;13509;50.760;6.080;2023-02-28T15:10:09;4.33;;;2.70;;
9080;SDS011;13509;50.760;6.080;2023-02-28T15:12:37;4.00;;;2.70;;
9080;SDS011;13509;50.760;6.080;2023-02-28T15:15:15;5.13;;;2.90;;
9080;SDS011;13509;50.760;6.080;2023-02-28T15:17:44;4.20;;;2.83;;
9080;SDS011;13509;50.760;6.080;2023-02-28T15:20:13;2.93;;;2.60;;
9080;SDS011;13509;50.760;6.080;2023-02-28T15:22:42;6.10;;;2.87;;
9080;SDS011;13509;50.760;6.080;2023-02-28T15:25:10;4.43;;;2.63;;
9080;SDS011;13509;50.760;6.080;2023-02-28T15:27:42;3.83;;;2.63;;
9080;SDS011;13509;50.760;6.080;2023-02-28T15:30:15;3.60;;;2.70;;
9080;SDS011;13509;50.760;6.080;2023-02-28T15:32:44;3.97;;;2.73;;
9080;SDS011;13509;50.760;6.080;2023-02-28T15:35:20;4.53;;;2.73;;
9080;SDS011;13509;50.760;6.080;2023-02-28T15:37:52;5.13;;;2.60;;
9080;SDS011;13509;50.760;6.080;2023-02-28T15:40:22;3.43;;;2.80;;
9080;SDS011;13509;50.760;6.080;2023-02-28T15:42:58;4.40;;;2.90;;
9080;SDS011;13509;50.760;6.080;2023-02-28T15:45:29;4.73;;;3.10;;